Time;durP1;ratioP1;P1;durP2;ratioP2;P2;SDS_P1;SDS_P2;PMS_P1;PMS_P2;Temp;Humidity;BMP_temperature;BMP_pressure;BME280_temperature;BME280_humidity;BME280_pressure;Samples;Min_cycle;Max_cycle;Signal;HPM_P1;HPM_P2
2023/01/31 00:00:13;;;;;;;31.87;4.60;;;3.80;99.90;;;;;;5031742;28;20025;-55
2023/01/31 00:02:38;;;;;;;22.13;3.93;;;3.80;99.90;;;;;;5031742;28;20029;-53
2023/01/31 00:05:05;;;;;;;23.40;3.80;;;3.90;99.90;;;;;;5031434;28;20045;-54
2023/01/31 00:07:30;;;;;;;27.73;4.40;;;3.90;99.90;;;;;;5031708;28;20029;-55
2023/01/31 00:09:56;;;;;;;25.83;4.33;;;3.90;99.90;;;;;;5031657;28;20044;-55
2023/01/31 00:12:21;;;;;;;21.63;4.67;;;3.90;99.90;;;;;;5030837;28;20037;-54
2023/01/31 00:14:47;;;;;;;23.57;3.80;;;4.00;99.90;;;;;;5031285;28;20030;-54
2023/01/31 00:17:13;;;;;;;24.33;4.33;;;3.90;99.90;;;;;;5031305;28;20474;-53
2023/01/31 00:19:38;;;;;;;20.63;4.17;;;4.00;99.90;;;;;;5031281;28;20080;-54
2023/01/31 00:22:04;;;;;;;24.57;4.07;;;4.00;99.90;;;;;;5031327;28;20037;-52
2023/01/31 00:24:30;;;;;;;20.50;3.63;;;4.00;99.90;;;;;;5031387;28;20029;-55
2023/01/31 00:26:55;;;;;;;25.73;4.03;;;4.00;99.90;;;;;;5031107;28;20114;-55
2023/01/31 00:29:23;;;;;;;24.07;3.90;;;4.10;99.90;;;;;;5031333;28;20037;-54
2023/01/31 00:31:49;;;;;;;19.03;3.67;;;4.10;99.90;;;;;;5031233;28;20156;-54
2023/01/31 00:34:17;;;;;;;20.63;3.20;;;4.10;99.90;;;;;;5030886;28;20170;-56
2023/01/31 00:36:43;;;;;;;28.13;4.43;;;4.10;99.90;;;;;;5031240;28;20029;-59
2023/01/31 00:39:09;;;;;;;20.70;3.70;;;4.10;99.90;;;;;;5030137;28;20041;-54
2023/01/31 00:41:37;;;;;;;22.77;4.13;;;4.00;99.90;;;;;;5030834;28;20025;-54
2023/01/31 00:44:04;;;;;;;24.33;4.90;;;4.00;99.90;;;;;;5029600;28;20029;-54
2023/01/31 00:46:30;;;;;;;23.63;4.17;;;3.90;99.90;;;;;;5030788;28;20388;-54
2023/01/31 00:48:56;;;;;;;25.73;4.07;;;3.90;99.90;;;;;;5030738;28;20037;-55
2023/01/31 00:51:24;;;;;;;20.83;3.50;;;4.00;99.90;;;;;;5030892;28;20430;-54
2023/01/31 00:53:50;;;;;;;25.60;3.60;;;4.00;99.90;;;;;;5030561;28;20040;-55
2023/01/31 00:56:19;;;;;;;25.07;4.13;;;3.90;99.90;;;;;;5030684;28;20486;-54
2023/01/31 00:58:45;;;;;;;23.52;3.65;;;3.90;99.90;;;;;;5029426;28;20032;-53
2023/01/31 01:01:16;;;;;;;24.37;4.00;;;3.90;99.90;;;;;;5029346;28;20029;-55
2023/01/31 01:03:44;;;;;;;23.80;4.07;;;3.80;99.90;;;;;;5028349;28;20124;-55
2023/01/31 01:06:11;;;;;;;30.30;4.00;;;3.70;99.90;;;;;;5029306;28;20037;-53
2023/01/31 01:08:38;;;;;;;24.23;3.60;;;3.70;99.90;;;;;;5030468;28;20064;-55
2023/01/31 01:11:12;;;;;;;18.80;4.20;;;3.60;99.90;;;;;;5029139;28;20091;-55
2023/01/31 01:13:38;;;;;;;21.63;4.37;;;3.60;99.90;;;;;;5030393;28;20043;-55
2023/01/31 01:16:06;;;;;;;23.07;3.60;;;3.50;99.90;;;;;;5029218;28;20029;-54
2023/01/31 01:18:34;;;;;;;30.57;4.33;;;3.50;99.90;;;;;;5030395;28;20033;-56
2023/01/31 01:21:11;;;;;;;21.17;3.60;;;3.50;99.90;;;;;;5030411;28;20100;-55
2023/01/31 01:23:38;;;;;;;23.00;4.30;;;3.50;99.90;;;;;;5030307;28;20393;-53
2023/01/31 01:26:04;;;;;;;21.60;3.93;;;3.50;99.90;;;;;;5029014;28;20033;-54
2023/01/31 01:28:34;;;;;;;25.93;4.40;;;3.60;99.90;;;;;;5028709;28;20633;-55
2023/01/31 01:31:04;;;;;;;28.10;4.20;;;3.50;99.90;;;;;;5029959;28;20030;-54
2023/01/31 01:33:30;;;;;;;20.80;3.90;;;3.50;99.90;;;;;;5030039;28;20523;-56
2023/01/31 01:36:01;;;;;;;21.93;3.90;;;3.50;99.90;;;;;;5030217;28;20105;-55
2023/01/31 01:38:27;;;;;;;22.97;4.13;;;3.40;99.90;;;;;;5030078;28;20505;-56
2023/01/31 01:40:52;;;;;;;24.37;4.60;;;3.50;99.90;;;;;;5028607;28;20030;-55
2023/01/31 01:43:21;;;;;;;18.60;4.27;;;3.40;99.90;;;;;;5028821;28;20092;-56
2023/01/31 01:45:47;;;;;;;21.80;4.17;;;3.50;99.90;;;;;;5030213;28;20402;-53
2023/01/31 01:48:16;;;;;;;26.30;4.70;;;3.40;99.90;;;;;;5029890;28;20029;-55
2023/01/31 01:50:47;;;;;;;20.98;4.72;;;3.40;99.90;;;;;;5030045;28;20116;-54
2023/01/31 01:53:21;;;;;;;25.90;4.03;;;3.40;99.90;;;;;;5028671;28;20041;-54
2023/01/31 01:55:54;;;;;;;22.97;4.70;;;3.40;99.90;;;;;;5029866;28;20041;-53
2023/01/31 01:58:25;;;;;;;28.53;5.53;;;3.40;99.90;;;;;;5028508;28;20064;-53
2023/01/31 02:00:53;;;;;;;26.33;4.60;;;3.40;99.90;;;;;;5028646;28;20026;-54
2023/01/31 02:03:19;;;;;;;23.73;4.30;;;3.40;99.90;;;;;;5028507;28;20030;-54
2023/01/31 02:06:05;;;;;;;25.37;4.70;;;3.40;99.90;;;;;;5029962;28;20034;-50
2023/01/31 02:08:33;;;;;;;20.80;4.30;;;3.50;99.90;;;;;;5028373;28;20120;-53
2023/01/31 02:11:24;;;;;;;29.13;4.33;;;3.50;99.90;;;;;;5028525;28;20033;-53
2023/01/31 02:13:55;;;;;;;29.63;3.77;;;3.40;99.90;;;;;;5030073;28;20053;-54
2023/01/31 02:16:20;;;;;;;22.00;4.10;;;3.40;99.90;;;;;;5032006;28;20398;-52
2023/01/31 02:18:47;;;;;;;22.87;4.43;;;3.40;99.90;;;;;;5033384;28;20087;-54
2023/01/31 02:21:30;;;;;;;21.47;3.77;;;3.40;99.90;;;;;;5031940;28;20508;-53
2023/01/31 02:24:36;;;;;;;24.73;3.83;;;3.40;99.90;;;;;;5033084;28;20044;-53
2023/01/31 02:27:10;;;;;;;19.93;3.80;;;3.40;99.90;;;;;;5033106;28;20052;-54
2023/01/31 02:30:07;;;;;;;19.87;4.13;;;3.40;99.90;;;;;;5031926;28;20041;-55
2023/01/31 02:32:43;;;;;;;27.40;4.13;;;3.40;99.90;;;;;;5033126;28;20034;-55
2023/01/31 02:35:19;;;;;;;25.10;3.60;;;3.30;99.90;;;;;;5031453;28;20033;-54
2023/01/31 02:38:13;;;;;;;23.30;3.60;;;3.30;99.90;;;;;;5032917;28;20037;-53
2023/01/31 02:40:51;;;;;;;22.23;3.87;;;3.30;99.90;;;;;;5031544;28;20021;-54
2023/01/31 02:43:28;;;;;;;27.53;4.53;;;3.20;99.90;;;;;;5031716;28;20048;-52
2023/01/31 02:46:04;;;;;;;;;;;3.20;99.90;;;;;;5032181;28;20067;-51
2023/01/31 02:48:34;;;;;;;24.63;4.17;;;3.10;99.90;;;;;;5031357;28;20285;-54
2023/01/31 02:51:18;;;;;;;18.07;3.83;;;3.10;99.90;;;;;;5031333;28;20029;-54
2023/01/31 02:53:58;;;;;;;22.83;4.47;;;3.00;99.90;;;;;;5031084;28;20494;-51
2023/01/31 02:56:32;;;;;;;23.40;4.20;;;3.00;99.90;;;;;;5031245;28;20121;-54
2023/01/31 02:59:25;;;;;;;28.10;4.73;;;2.90;99.90;;;;;;5031281;28;20482;-54
2023/01/31 03:01:59;;;;;;;23.57;3.93;;;2.90;99.90;;;;;;5031305;28;20030;-53
2023/01/31 03:04:30;;;;;;;23.97;4.20;;;2.90;99.90;;;;;;5031100;28;20044;-54
2023/01/31 03:07:33;;;;;;;25.20;4.87;;;3.00;99.90;;;;;;5014593;28;20037;-54
2023/01/31 03:10:24;;;;;;;27.50;4.40;;;3.00;99.90;;;;;;5010652;28;20037;-54
2023/01/31 03:12:58;;;;;;;21.23;4.00;;;3.00;99.90;;;;;;5032258;28;20046;-54
2023/01/31 03:18:40;;;;;;;26.93;4.43;;;3.10;99.90;;;;;;5030741;28;20025;-52
2023/01/31 03:21:13;;;;;;;28.70;5.40;;;3.10;99.90;;;;;;5032090;28;20033;-54
2023/01/31 03:23:42;;;;;;;27.47;4.63;;;3.20;99.90;;;;;;5030737;28;20051;-54
2023/01/31 03:26:09;;;;;;;26.50;4.77;;;3.20;99.90;;;;;;5031231;28;20030;-53
2023/01/31 03:28:39;;;;;;;29.57;5.10;;;3.20;99.90;;;;;;5030592;28;20029;-54
2023/01/31 03:31:23;;;;;;;24.97;4.90;;;3.30;99.90;;;;;;5030664;28;20029;-54
2023/01/31 03:33:56;;;;;;;22.93;4.73;;;3.30;99.90;;;;;;5031917;28;20040;-53
2023/01/31 03:36:49;;;;;;;24.83;5.23;;;3.20;99.90;;;;;;5030494;28;20471;-55
2023/01/31 03:40:05;;;;;;;22.23;5.00;;;3.20;99.90;;;;;;5030475;28;20029;-55
2023/01/31 03:42:49;;;;;;;22.93;4.50;;;3.20;99.90;;;;;;5032842;23;20081;-50
2023/01/31 03:45:57;;;;;;;26.57;4.27;;;3.10;99.90;;;;;;5010300;28;20136;-51
2023/01/31 03:48:28;;;;;;;29.27;5.43;;;3.10;99.90;;;;;;5002472;28;20048;-53
2023/01/31 03:50:58;;;;;;;27.97;5.30;;;3.10;99.90;;;;;;5010602;28;20053;-51
2023/01/31 03:53:31;;;;;;;23.40;5.53;;;3.10;99.90;;;;;;5029020;28;20095;-50
2023/01/31 03:56:06;;;;;;;29.87;5.80;;;3.10;99.90;;;;;;5031589;28;20025;-48
2023/01/31 03:58:40;;;;;;;30.97;5.43;;;3.10;99.90;;;;;;5030005;28;20060;-49
2023/01/31 04:01:07;;;;;;;26.30;4.80;;;3.20;99.90;;;;;;5030131;28;20482;-50
2023/01/31 04:03:47;;;;;;;27.10;5.47;;;3.20;99.90;;;;;;5029970;28;20569;-49
2023/01/31 04:06:13;;;;;;;25.47;6.00;;;3.20;99.90;;;;;;5031376;28;20071;-53
2023/01/31 04:08:40;;;;;;;35.57;6.30;;;3.30;99.90;;;;;;5029789;28;20075;-50
2023/01/31 04:11:11;;;;;;;34.88;6.55;;;3.30;99.90;;;;;;5029925;28;20036;-51
2023/01/31 04:13:37;;;;;;;31.27;7.13;;;3.30;99.90;;;;;;5030941;28;20033;-50
2023/01/31 04:16:03;;;;;;;27.87;7.13;;;3.30;99.90;;;;;;5030148;28;20452;-50
2023/01/31 04:18:29;;;;;;;28.93;6.40;;;3.30;99.90;;;;;;5030935;28;20112;-53
2023/01/31 04:20:55;;;;;;;36.67;7.57;;;3.20;99.90;;;;;;5030945;28;20109;-52
2023/01/31 04:23:21;;;;;;;24.93;6.40;;;3.20;99.90;;;;;;5030724;28;20562;-53
2023/01/31 04:25:46;;;;;;;23.13;6.10;;;3.20;99.90;;;;;;5031012;28;20393;-51
2023/01/31 04:28:12;;;;;;;26.20;6.23;;;3.20;99.90;;;;;;5030824;28;20025;-49
2023/01/31 04:30:38;;;;;;;23.40;5.17;;;3.20;99.90;;;;;;5030985;28;20037;-49
2023/01/31 04:33:03;;;;;;;31.27;5.93;;;3.20;99.90;;;;;;5030802;28;20026;-51
2023/01/31 04:35:29;;;;;;;21.27;5.47;;;3.20;99.90;;;;;;5030619;28;20478;-53
2023/01/31 04:37:55;;;;;;;27.40;6.10;;;3.20;99.90;;;;;;5030362;28;20036;-52
2023/01/31 04:40:21;;;;;;;28.50;6.07;;;3.10;99.90;;;;;;5031007;28;20179;-49
2023/01/31 04:42:48;;;;;;;25.53;5.47;;;3.10;99.90;;;;;;5023963;28;20094;-51
2023/01/31 04:45:14;;;;;;;28.23;6.10;;;3.10;99.90;;;;;;5020751;28;20089;-49
2023/01/31 04:47:40;;;;;;;27.17;5.67;;;3.10;99.90;;;;;;5028058;28;20395;-51
2023/01/31 04:50:06;;;;;;;22.30;5.90;;;3.10;99.90;;;;;;5029052;28;20210;-52
2023/01/31 04:52:32;;;;;;;26.40;6.10;;;3.10;99.90;;;;;;5028316;28;20034;-51
2023/01/31 04:54:57;;;;;;;30.80;6.43;;;3.20;99.90;;;;;;5028680;28;20041;-51
2023/01/31 04:57:23;;;;;;;23.33;5.60;;;3.20;99.90;;;;;;5027956;28;20049;-52
2023/01/31 04:59:50;;;;;;;26.50;6.00;;;3.20;99.90;;;;;;5027766;28;20130;-51
2023/01/31 05:02:17;;;;;;;28.27;6.40;;;3.30;99.90;;;;;;5028699;28;20042;-50
2023/01/31 05:04:43;;;;;;;26.03;6.50;;;3.30;99.90;;;;;;5028621;28;20135;-48
2023/01/31 05:07:09;;;;;;;23.67;6.67;;;3.30;99.90;;;;;;5028730;28;20116;-51
2023/01/31 05:09:34;;;;;;;26.87;6.37;;;3.30;99.90;;;;;;5028656;28;20021;-54
2023/01/31 05:12:00;;;;;;;23.87;6.70;;;3.40;99.90;;;;;;5028776;28;20077;-49
2023/01/31 05:14:26;;;;;;;36.90;7.50;;;3.30;99.90;;;;;;5027782;28;20044;-50
2023/01/31 05:16:52;;;;;;;31.77;7.57;;;3.30;99.90;;;;;;5028794;28;20037;-50
2023/01/31 05:19:18;;;;;;;32.53;8.17;;;3.30;99.90;;;;;;5028587;28;20026;-50
2023/01/31 05:22:05;;;;;;;40.77;8.50;;;3.30;99.90;;;;;;5028770;28;20446;-51
2023/01/31 05:24:31;;;;;;;36.53;8.20;;;3.30;99.90;;;;;;5028082;28;20042;-50
2023/01/31 05:27:00;;;;;;;32.23;8.00;;;3.40;99.90;;;;;;5028611;28;20077;-50
2023/01/31 05:29:27;;;;;;;38.83;9.00;;;3.40;99.90;;;;;;5027678;28;20052;-49
2023/01/31 05:31:57;;;;;;;31.47;8.13;;;3.40;99.90;;;;;;5028507;28;20029;-51
2023/01/31 05:34:27;;;;;;;36.37;8.10;;;3.40;99.90;;;;;;5027969;28;20029;-52
2023/01/31 05:36:54;;;;;;;34.23;8.13;;;3.40;99.90;;;;;;5028406;28;20045;-51
2023/01/31 05:39:20;;;;;;;35.00;9.67;;;3.30;99.90;;;;;;5028287;28;20033;-53
2023/01/31 05:41:45;;;;;;;32.80;9.43;;;3.30;99.90;;;;;;5028312;28;20120;-51
2023/01/31 05:44:11;;;;;;;34.77;9.83;;;3.30;99.90;;;;;;5027191;28;20112;-53
2023/01/31 05:46:37;;;;;;;35.50;10.47;;;3.30;99.90;;;;;;5028228;28;20033;-54
2023/01/31 05:49:03;;;;;;;36.77;10.00;;;3.40;99.90;;;;;;5029132;28;20049;-53
2023/01/31 05:51:29;;;;;;;32.23;9.20;;;3.40;99.90;;;;;;5032412;28;20500;-52
2023/01/31 05:53:55;;;;;;;30.90;9.03;;;3.50;99.90;;;;;;5031966;28;20044;-51
2023/01/31 05:56:22;;;;;;;40.07;9.80;;;3.50;99.90;;;;;;5032035;28;20474;-52
2023/01/31 05:58:49;;;;;;;32.03;9.67;;;3.50;99.90;;;;;;5031186;28;20030;-51
2023/01/31 06:01:22;;;;;;;62.43;10.87;;;3.50;99.90;;;;;;5031440;28;20033;-51
2023/01/31 06:03:48;;;;;;;28.80;8.97;;;3.50;99.90;;;;;;5031624;28;20040;-51
2023/01/31 06:06:14;;;;;;;32.50;8.93;;;3.60;99.90;;;;;;5031893;28;20033;-49
2023/01/31 06:08:42;;;;;;;28.30;8.53;;;3.60;99.90;;;;;;5031583;28;20112;-52
2023/01/31 06:11:10;;;;;;;31.53;8.47;;;3.60;99.90;;;;;;5031854;28;20026;-50
2023/01/31 06:13:37;;;;;;;36.37;9.37;;;3.60;99.90;;;;;;5031219;28;20219;-53
2023/01/31 06:16:03;;;;;;;31.73;9.10;;;3.60;99.90;;;;;;5031215;28;20041;-50
2023/01/31 06:18:29;;;;;;;30.13;8.83;;;3.60;99.90;;;;;;5031810;28;20038;-50
2023/01/31 06:20:55;;;;;;;32.77;8.33;;;3.50;99.90;;;;;;5031906;28;20025;-51
2023/01/31 06:23:21;;;;;;;26.70;8.53;;;3.50;99.90;;;;;;5031356;28;20540;-53
2023/01/31 06:25:51;;;;;;;33.43;9.47;;;3.50;99.90;;;;;;5031445;28;20041;-53
2023/01/31 06:28:17;;;;;;;28.87;9.60;;;3.60;99.90;;;;;;5030982;28;20030;-51
2023/01/31 06:30:44;;;;;;;31.90;9.43;;;3.60;99.90;;;;;;5030676;28;20038;-49
2023/01/31 06:33:09;;;;;;;34.80;9.20;;;3.60;99.90;;;;;;5031368;28;20033;-50
2023/01/31 06:35:36;;;;;;;29.50;9.20;;;3.70;99.90;;;;;;5031004;28;20055;-49
2023/01/31 06:38:01;;;;;;;28.67;10.00;;;3.70;99.90;;;;;;5031310;28;20025;-50
2023/01/31 06:40:27;;;;;;;32.13;9.83;;;3.90;99.90;;;;;;5031141;28;20689;-47
2023/01/31 06:42:53;;;;;;;38.13;9.30;;;3.80;99.90;;;;;;5030519;28;20036;-47
2023/01/31 06:45:19;;;;;;;35.80;9.43;;;3.80;99.90;;;;;;5030222;28;20030;-51
2023/01/31 06:47:45;;;;;;;29.80;8.23;;;3.90;99.90;;;;;;5030772;28;20398;-47
2023/01/31 06:50:11;;;;;;;31.07;8.73;;;3.90;99.90;;;;;;5030892;28;20037;-47
2023/01/31 06:52:38;;;;;;;26.37;7.97;;;4.00;99.90;;;;;;5030788;28;20687;-48
2023/01/31 06:55:04;;;;;;;29.00;7.93;;;4.00;99.90;;;;;;5030358;28;20124;-49
2023/01/31 06:57:30;;;;;;;26.30;8.07;;;4.00;99.90;;;;;;5029551;28;20040;-52
2023/01/31 06:59:55;;;;;;;30.43;7.70;;;4.10;99.90;;;;;;5029947;28;20022;-53
2023/01/31 07:02:21;;;;;;;31.70;7.63;;;4.10;99.90;;;;;;5030987;28;20032;-51
2023/01/31 07:04:47;;;;;;;31.27;7.80;;;4.10;99.90;;;;;;5030473;28;20066;-51
2023/01/31 07:07:12;;;;;;;31.43;7.83;;;4.20;99.90;;;;;;5030757;28;20041;-48
2023/01/31 07:09:38;;;;;;;27.60;7.10;;;4.20;99.90;;;;;;5030836;28;20390;-50
2023/01/31 07:12:04;;;;;;;34.47;7.30;;;4.20;99.90;;;;;;5030464;28;20061;-51
2023/01/31 07:14:30;;;;;;;31.93;7.47;;;4.30;99.90;;;;;;5029896;28;20037;-49
2023/01/31 07:16:56;;;;;;;31.47;7.47;;;4.30;99.90;;;;;;5030736;28;20029;-53
2023/01/31 07:19:21;;;;;;;33.93;7.70;;;4.30;99.90;;;;;;5030347;28;20036;-52
2023/01/31 07:21:48;;;;;;;32.53;7.40;;;4.40;99.90;;;;;;5030578;28;20609;-49
2023/01/31 07:24:15;;;;;;;25.80;6.77;;;4.50;99.90;;;;;;5030145;28;20175;-52
2023/01/31 07:26:40;;;;;;;23.97;6.70;;;4.50;99.90;;;;;;5030026;28;20108;-52
2023/01/31 07:29:07;;;;;;;21.57;6.63;;;4.50;99.90;;;;;;5029137;28;20234;-52
2023/01/31 07:31:33;;;;;;;25.87;6.37;;;4.50;99.90;;;;;;5030437;28;20109;-50
2023/01/31 07:33:58;;;;;;;26.00;6.53;;;4.60;99.90;;;;;;5029835;28;20549;-53
2023/01/31 07:36:25;;;;;;;23.57;7.13;;;4.60;99.90;;;;;;5030741;28;20035;-52
2023/01/31 07:38:55;;;;;;;24.50;6.93;;;4.60;99.90;;;;;;5030134;28;20052;-54
2023/01/31 07:41:22;;;;;;;29.37;6.73;;;4.60;99.90;;;;;;5029839;28;20074;-54
2023/01/31 07:43:47;;;;;;;23.70;6.37;;;4.60;99.90;;;;;;5029273;28;20029;-50
2023/01/31 07:46:13;;;;;;;25.20;6.47;;;4.60;99.90;;;;;;5029785;28;20075;-50
2023/01/31 07:48:39;;;;;;;25.60;6.80;;;4.70;99.90;;;;;;5030028;28;20461;-53
2023/01/31 07:51:05;;;;;;;28.40;7.00;;;4.70;99.90;;;;;;5030038;28;20109;-52
2023/01/31 07:53:34;;;;;;;29.30;6.90;;;4.70;99.90;;;;;;5029739;28;20029;-50
2023/01/31 07:56:07;;;;;;;26.93;7.13;;;4.70;99.90;;;;;;5030293;28;20062;-50
2023/01/31 07:58:34;;;;;;;25.93;6.47;;;4.70;99.90;;;;;;5029421;28;20474;-49
2023/01/31 08:03:45;;;;;;;27.30;6.60;;;4.70;99.90;;;;;;5029621;28;20454;-50
2023/01/31 08:06:12;;;;;;;29.20;6.20;;;4.70;99.90;;;;;;5029716;28;20029;-50
2023/01/31 08:08:39;;;;;;;28.27;6.13;;;4.70;99.90;;;;;;5029794;28;20106;-51
2023/01/31 08:11:05;;;;;;;25.57;6.00;;;4.70;99.90;;;;;;5029611;28;20425;-49
2023/01/31 08:13:35;;;;;;;27.83;6.77;;;4.70;99.90;;;;;;5025690;28;22112;-49
2023/01/31 08:16:02;;;;;;;24.70;6.57;;;4.70;99.90;;;;;;5029066;28;20099;-50
2023/01/31 08:18:28;;;;;;;27.37;5.97;;;4.70;99.90;;;;;;5029847;28;20025;-45
2023/01/31 08:20:55;;;;;;;22.30;6.27;;;4.70;99.90;;;;;;5029341;28;20120;-44
2023/01/31 08:23:21;;;;;;;26.77;6.00;;;4.80;99.90;;;;;;5029410;28;20022;-42
2023/01/31 08:25:47;;;;;;;24.93;5.93;;;4.90;99.90;;;;;;5029039;28;20536;-50
2023/01/31 08:28:14;;;;;;;23.87;5.77;;;5.00;99.90;;;;;;5028433;28;20030;-51
2023/01/31 08:30:43;;;;;;;23.07;5.37;;;4.90;99.90;;;;;;5028232;28;20025;-49
2023/01/31 08:33:10;;;;;;;;;;;4.90;99.90;;;;;;5030025;28;20033;-52
2023/01/31 08:35:36;;;;;;;24.43;4.90;;;4.90;99.90;;;;;;5028741;28;19917;-52
2023/01/31 08:38:03;;;;;;;25.10;4.90;;;4.90;99.90;;;;;;5029115;28;20021;-50
2023/01/31 08:40:29;;;;;;;26.63;5.57;;;4.70;99.90;;;;;;5029020;28;20033;-52
2023/01/31 08:42:56;;;;;;;23.70;6.33;;;4.80;99.90;;;;;;5028701;28;20044;-50
2023/01/31 08:45:22;;;;;;;30.17;6.67;;;4.70;99.90;;;;;;5027936;28;20052;-52
2023/01/31 08:47:54;;;;;;;24.27;4.77;;;4.70;99.90;;;;;;5028733;28;20423;-53
2023/01/31 08:50:19;;;;;;;25.57;5.83;;;4.70;99.90;;;;;;5029300;28;20068;-50
2023/01/31 08:52:45;;;;;;;30.93;6.23;;;4.80;99.90;;;;;;5028888;28;20025;-50
2023/01/31 08:55:12;;;;;;;21.63;4.93;;;4.80;99.90;;;;;;5028796;28;20029;-52
2023/01/31 08:57:39;;;;;;;23.87;5.00;;;4.80;99.90;;;;;;5028695;28;20038;-54
2023/01/31 09:00:07;;;;;;;22.67;5.10;;;4.80;99.90;;;;;;5028169;28;20025;-53
2023/01/31 09:02:32;;;;;;;19.77;5.00;;;4.80;99.90;;;;;;5028726;28;20089;-52
2023/01/31 09:04:58;;;;;;;27.00;5.27;;;4.80;99.90;;;;;;5028802;28;20083;-55
2023/01/31 09:07:24;;;;;;;26.17;6.23;;;4.90;99.90;;;;;;5029018;28;20672;-54
2023/01/31 09:09:49;;;;;;;23.00;6.23;;;4.90;99.90;;;;;;5029031;28;20037;-54
2023/01/31 09:12:15;;;;;;;28.23;6.80;;;5.00;99.90;;;;;;5028640;28;20061;-51
2023/01/31 09:14:41;;;;;;;20.00;5.67;;;5.00;99.90;;;;;;5028013;28;20040;-53
2023/01/31 09:17:09;;;;;;;22.23;6.00;;;5.00;99.90;;;;;;5027285;28;20084;-54
2023/01/31 09:19:35;;;;;;;25.93;7.23;;;5.10;99.90;;;;;;5028247;28;20037;-52
2023/01/31 09:22:01;;;;;;;27.90;7.00;;;5.10;99.90;;;;;;5028827;28;20215;-51
2023/01/31 09:24:27;;;;;;;26.33;6.17;;;5.20;99.90;;;;;;5030084;28;20045;-51
2023/01/31 09:26:54;;;;;;;24.00;5.73;;;5.20;99.90;;;;;;5032362;28;20060;-49
2023/01/31 09:29:19;;;;;;;22.03;5.70;;;5.30;99.90;;;;;;5031426;28;20041;-51
2023/01/31 09:31:49;;;;;;;21.63;7.30;;;5.40;99.90;;;;;;5032991;28;20033;-49
2023/01/31 09:34:15;;;;;;;21.30;4.78;;;5.50;99.90;;;;;;5032369;28;20038;-52
2023/01/31 09:36:41;;;;;;;19.50;4.80;;;5.50;99.90;;;;;;5032249;28;20109;-52
2023/01/31 09:39:07;;;;;;;22.90;5.43;;;5.50;99.90;;;;;;5032564;28;20052;-49
2023/01/31 09:44:25;;;;;;;23.03;5.73;;;5.50;99.90;;;;;;4910602;29;20084;-49
2023/01/31 09:47:08;;;;;;;22.73;5.53;;;5.50;99.90;;;;;;4915168;29;20044;-49
2023/01/31 09:49:44;;;;;;;20.83;4.57;;;5.50;99.90;;;;;;4915821;29;20119;-48
2023/01/31 09:52:10;;;;;;;17.57;3.83;;;5.50;99.90;;;;;;4921653;29;20040;-50
2023/01/31 09:54:39;;;;;;;22.30;4.40;;;5.50;99.90;;;;;;4934656;29;20086;-53
2023/01/31 09:57:11;;;;;;;20.48;4.60;;;5.50;99.90;;;;;;4933888;29;20040;-50
2023/01/31 10:00:17;;;;;;;17.67;4.20;;;5.60;99.90;;;;;;4934122;29;20110;-52
2023/01/31 10:02:54;;;;;;;16.23;4.17;;;5.60;99.90;;;;;;4896651;29;20563;-50
2023/01/31 10:05:40;;;;;;;21.70;4.53;;;5.60;99.90;;;;;;4928534;29;20032;-56
2023/01/31 10:08:33;;;;;;;20.63;4.43;;;5.60;99.90;;;;;;4898143;29;20098;-53
2023/01/31 10:11:02;;;;;;;14.83;4.10;;;5.60;99.90;;;;;;4932347;29;20031;-52
2023/01/31 10:13:43;;;;;;;22.35;4.18;;;5.60;99.90;;;;;;4930604;29;20394;-53
2023/01/31 10:16:44;;;;;;;21.90;4.80;;;5.60;99.90;;;;;;4931335;29;20028;-54
2023/01/31 10:19:20;;;;;;;19.47;4.10;;;5.60;99.90;;;;;;4929888;29;20445;-53
2023/01/31 10:22:10;;;;;;;14.43;4.23;;;5.60;99.90;;;;;;4931426;29;20174;-50
2023/01/31 10:24:42;;;;;;;;;;;5.70;99.90;;;;;;4930475;29;20127;-56
2023/01/31 10:27:18;;;;;;;17.13;5.30;;;5.70;99.90;;;;;;4930670;29;20191;-54
2023/01/31 10:29:52;;;;;;;22.00;5.70;;;5.70;99.90;;;;;;4931067;29;20086;-53
2023/01/31 10:32:27;;;;;;;21.93;5.67;;;5.80;99.90;;;;;;4931437;29;20048;-52
2023/01/31 10:34:57;;;;;;;21.27;5.43;;;5.90;99.90;;;;;;4929408;29;20425;-49
2023/01/31 10:37:42;;;;;;;25.23;6.90;;;5.90;99.90;;;;;;4930798;29;20065;-53
2023/01/31 10:40:27;;;;;;;18.33;5.47;;;5.90;99.90;;;;;;4930717;29;20357;-48
2023/01/31 10:43:15;;;;;;;23.17;5.83;;;6.00;99.90;;;;;;4930551;29;20043;-53
2023/01/31 10:45:41;;;;;;;16.17;3.83;;;6.00;99.90;;;;;;4929733;29;20024;-48
2023/01/31 10:48:24;;;;;;;22.83;5.37;;;6.00;99.90;;;;;;4929907;29;20497;-54
2023/01/31 10:51:03;;;;;;;18.83;4.27;;;6.10;99.90;;;;;;4931791;29;20031;-52
2023/01/31 10:53:29;;;;;;;22.07;5.20;;;6.00;99.90;;;;;;4930200;29;20058;-48
2023/01/31 10:56:25;;;;;;;20.00;4.73;;;6.00;99.90;;;;;;4930269;29;20035;-48
2023/01/31 10:58:52;;;;;;;13.83;4.33;;;6.10;99.90;;;;;;4928485;29;20047;-50
2023/01/31 11:01:18;;;;;;;20.97;4.60;;;6.10;99.90;;;;;;4931282;29;20508;-49
2023/01/31 11:03:52;;;;;;;20.70;4.90;;;6.10;99.90;;;;;;4929209;29;20040;-54
2023/01/31 11:06:19;;;;;;;19.67;4.73;;;6.00;99.90;;;;;;4931435;29;20034;-51
2023/01/31 11:08:57;;;;;;;24.33;5.40;;;6.00;99.90;;;;;;4933646;29;20542;-51
2023/01/31 11:11:25;;;;;;;24.20;5.20;;;6.00;99.90;;;;;;4933335;29;20703;-53
2023/01/31 11:14:04;;;;;;;21.53;5.17;;;6.00;99.90;;;;;;4932181;29;20036;-52
2023/01/31 11:16:37;;;;;;;16.23;4.70;;;6.00;99.90;;;;;;4932714;29;20496;-53
2023/01/31 11:19:30;;;;;;;18.60;4.93;;;6.00;99.90;;;;;;4933051;29;20032;-51
2023/01/31 11:21:56;;;;;;;20.07;5.07;;;6.10;99.90;;;;;;4928812;29;20737;-51
2023/01/31 11:24:24;;;;;;;20.73;5.43;;;6.10;99.90;;;;;;4932951;29;20098;-50
2023/01/31 11:26:56;;;;;;;19.73;5.73;;;6.00;99.90;;;;;;4932858;29;20043;-52
2023/01/31 11:29:33;;;;;;;21.53;5.70;;;6.10;99.90;;;;;;4914635;29;20028;-56
2023/01/31 11:32:00;;;;;;;18.87;6.07;;;6.10;99.90;;;;;;4933169;29;20032;-51
2023/01/31 11:34:32;;;;;;;22.23;7.17;;;6.20;99.90;;;;;;4932295;29;20404;-49
2023/01/31 11:37:04;;;;;;;20.07;6.63;;;6.20;99.90;;;;;;4932855;29;20069;-51
2023/01/31 11:39:37;;;;;;;21.20;6.93;;;6.20;99.90;;;;;;4932467;29;20083;-53
2023/01/31 11:42:12;;;;;;;19.20;6.93;;;6.20;99.90;;;;;;4926608;29;20107;-53
2023/01/31 11:45:00;;;;;;;24.47;6.63;;;6.30;99.90;;;;;;4916322;29;20035;-53
2023/01/31 11:47:48;;;;;;;20.37;6.30;;;6.30;99.90;;;;;;4926975;29;20055;-52
2023/01/31 11:50:39;;;;;;;23.43;6.73;;;6.30;99.90;;;;;;4928178;29;20040;-51
2023/01/31 11:53:21;;;;;;;21.23;6.53;;;6.40;99.90;;;;;;4932398;29;20066;-50
2023/01/31 11:55:48;;;;;;;20.93;6.40;;;6.40;99.90;;;;;;4932312;29;20103;-50
2023/01/31 11:58:23;;;;;;;18.13;6.37;;;6.40;99.90;;;;;;4931802;29;20034;-52
2023/01/31 12:00:59;;;;;;;18.23;6.63;;;6.50;99.90;;;;;;4931371;29;20158;-51
2023/01/31 12:03:26;;;;;;;19.63;6.67;;;6.40;99.90;;;;;;4932282;29;20192;-51
2023/01/31 12:05:59;;;;;;;21.13;6.63;;;6.50;99.90;;;;;;4925452;29;20098;-50
2023/01/31 12:08:29;;;;;;;19.47;7.13;;;6.40;99.90;;;;;;4915548;29;20056;-53
2023/01/31 12:10:56;;;;;;;19.70;6.83;;;6.50;99.90;;;;;;4913163;29;20035;-50
2023/01/31 12:13:22;;;;;;;20.20;6.43;;;6.50;99.90;;;;;;4912847;29;20408;-53
2023/01/31 12:15:54;;;;;;;21.43;6.90;;;6.50;99.90;;;;;;4912496;29;20115;-51
2023/01/31 12:18:37;;;;;;;23.90;6.90;;;6.50;99.90;;;;;;4919241;29;20115;-51
2023/01/31 12:21:25;;;;;;;24.03;7.40;;;6.50;99.90;;;;;;4922320;29;20482;-52
2023/01/31 12:24:07;;;;;;;20.57;6.70;;;6.50;99.90;;;;;;4926069;29;20039;-51
2023/01/31 12:26:46;;;;;;;18.77;6.67;;;6.50;99.90;;;;;;4931055;29;20032;-53
2023/01/31 12:29:41;;;;;;;27.92;7.60;;;6.50;99.90;;;;;;4930974;29;20123;-52
2023/01/31 12:32:28;;;;;;;20.63;7.10;;;6.50;99.90;;;;;;4932025;29;20031;-52
2023/01/31 12:35:02;;;;;;;24.77;7.97;;;6.50;99.90;;;;;;4931483;29;20039;-52
2023/01/31 12:37:34;;;;;;;22.67;7.43;;;6.50;99.90;;;;;;4931422;29;20024;-53
2023/01/31 12:40:21;;;;;;;21.80;7.63;;;6.40;99.90;;;;;;4932024;29;20087;-53
2023/01/31 12:43:01;;;;;;;20.40;7.40;;;6.50;99.90;;;;;;4931490;29;20109;-51
2023/01/31 12:45:52;;;;;;;17.17;7.20;;;6.50;99.90;;;;;;4931013;29;20118;-52
2023/01/31 12:48:48;;;;;;;23.50;7.63;;;6.60;99.90;;;;;;4931310;29;20039;-53
2023/01/31 12:51:19;;;;;;;19.07;8.00;;;6.60;99.90;;;;;;4931818;29;20465;-51
2023/01/31 12:54:15;;;;;;;20.53;7.90;;;6.60;99.90;;;;;;4931071;29;20818;-52
2023/01/31 12:57:00;;;;;;;21.87;7.80;;;6.70;99.90;;;;;;4929951;29;20024;-54
2023/01/31 13:00:05;;;;;;;17.93;7.40;;;6.60;99.90;;;;;;4928773;29;20426;-53
2023/01/31 13:02:39;;;;;;;18.77;7.33;;;6.60;99.90;;;;;;4929927;29;20396;-51
2023/01/31 13:05:20;;;;;;;18.43;7.03;;;6.70;99.90;;;;;;4929540;29;20058;-53
2023/01/31 13:08:16;;;;;;;19.57;7.50;;;6.70;99.90;;;;;;4929453;29;20067;-52
2023/01/31 13:10:55;;;;;;;22.23;7.43;;;6.70;99.90;;;;;;4929606;29;20044;-49
2023/01/31 13:13:44;;;;;;;22.65;7.55;;;6.80;99.90;;;;;;4930480;29;20079;-50
2023/01/31 13:16:20;;;;;;;22.90;7.23;;;6.70;99.90;;;;;;4930612;29;20067;-53
2023/01/31 13:18:50;;;;;;;23.83;8.23;;;6.70;99.90;;;;;;4931278;29;20066;-53